Terminal Aerodrome Forecast
Issued by NWS

Home | Current Version | Previous Version | Text Only | Print | Product List | Glossary On
Versions: 1 2 3 4 5 6 7 8 9 10 11 12 13 14 15 16
000
FTUS42 KMHX 262300
TAFISO
TAF
KISO 262321Z 2700/2724 30006KT P6SM OVC030
     FM270200 32010G18KT 6SM -RA BR SCT007 OVC020
     FM271000 33012G18KT 5SM -RASN SCT007 OVC015
     FM271500 34008KT P6SM OVC025
     FM272000 32007KT P6SM OVC050
      AMD LTD TO CLD VIS AND WIND=

USA.gov is the U.S. government's official web portal to all federal, state and local government web resources and services.